Time;durP1;ratioP1;P1;durP2;ratioP2;P2;SDS_P1;SDS_P2;PMS_P1;PMS_P2;Temp;Humidity;BMP_temperature;BMP_pressure;BME280_temperature;BME280_humidity;BME280_pressure;Samples;Min_cycle;Max_cycle;Signal;HPM_P1;HPM_P2
2022/11/13 00:01:23;;;;;;;4.72;0.80;;;;;;;;;;5001061;28;20045;-67
2022/11/13 00:04:09;;;;;;;2.25;0.55;;;;;;;;;;5000690;28;20041;-68
2022/11/13 00:06:53;;;;;;;2.67;0.73;;;;;;;;;;5000902;28;20537;-68
2022/11/13 00:09:37;;;;;;;3.10;0.55;;;;;;;;;;5000580;28;20045;-67
2022/11/13 00:12:21;;;;;;;2.85;0.40;;;;;;;;;;5000466;28;20057;-68
2022/11/13 00:15:06;;;;;;;1.48;0.50;;;;;;;;;;5000315;28;20041;-68
2022/11/13 00:17:50;;;;;;;3.92;0.57;;;;;;;;;;5000460;28;20117;-69
2022/11/13 00:20:35;;;;;;;0.80;0.43;;;;;;;;;;5013994;28;20037;-69
2022/11/13 00:23:19;;;;;;;1.67;0.47;;;;;;;;;;5000477;28;20084;-68
2022/11/13 00:26:04;;;;;;;1.85;0.70;;;;;;;;;;5017131;28;20411;-68
2022/11/13 00:28:53;;;;;;;1.17;0.50;;;;;;;;;;5000252;28;20041;-68
2022/11/13 00:31:36;;;;;;;5.35;0.70;;;;;;;;;;5013831;28;20065;-69
2022/11/13 00:34:20;;;;;;;3.17;0.50;;;;;;;;;;5013843;28;20353;-68
2022/11/13 00:37:04;;;;;;;1.90;0.60;;;;;;;;;;4999917;28;20053;-69
2022/11/13 00:39:49;;;;;;;3.08;0.43;;;;;;;;;;4999743;28;20537;-68
2022/11/13 00:42:33;;;;;;;3.28;0.50;;;;;;;;;;5013781;28;20135;-68
2022/11/13 00:45:16;;;;;;;1.50;0.50;;;;;;;;;;4999893;28;20052;-68
2022/11/13 00:48:01;;;;;;;0.80;0.43;;;;;;;;;;5017263;28;20514;-68
2022/11/13 00:50:44;;;;;;;1.20;0.50;;;;;;;;;;4999662;28;20053;-69
2022/11/13 00:53:29;;;;;;;1.42;0.50;;;;;;;;;;5000079;28;20107;-68
2022/11/13 00:56:13;;;;;;;1.25;0.60;;;;;;;;;;4999896;28;20088;-69
2022/11/13 00:58:57;;;;;;;2.15;0.57;;;;;;;;;;4999686;28;20040;-69
2022/11/13 01:01:41;;;;;;;1.90;0.65;;;;;;;;;;4999793;28;20120;-68
2022/11/13 01:04:25;;;;;;;1.23;0.47;;;;;;;;;;4999869;28;20384;-68
2022/11/13 01:07:09;;;;;;;0.85;0.50;;;;;;;;;;4999542;28;20033;-70
2022/11/13 01:09:53;;;;;;;1.13;0.40;;;;;;;;;;4999494;28;20767;-68
2022/11/13 01:12:38;;;;;;;1.83;0.52;;;;;;;;;;4999689;28;20403;-68
2022/11/13 01:15:22;;;;;;;4.88;0.75;;;;;;;;;;5002615;28;20053;-68
2022/11/13 01:18:06;;;;;;;1.92;1.45;;;;;;;;;;4999501;28;20039;-68
2022/11/13 01:20:50;;;;;;;2.08;1.10;;;;;;;;;;4999333;28;20438;-68
2022/11/13 01:23:35;;;;;;;1.65;0.60;;;;;;;;;;4999460;28;20025;-69
2022/11/13 01:26:26;;;;;;;0.75;0.60;;;;;;;;;;4999509;28;20049;-69
2022/11/13 01:29:11;;;;;;;3.05;0.80;;;;;;;;;;4999254;28;20431;-69
2022/11/13 01:31:55;;;;;;;5.45;0.70;;;;;;;;;;4999451;28;20125;-69
2022/11/13 01:34:39;;;;;;;1.33;0.50;;;;;;;;;;4999332;28;20555;-69
2022/11/13 01:37:23;;;;;;;1.15;0.38;;;;;;;;;;5030534;28;20057;-68
2022/11/13 01:40:09;;;;;;;3.42;0.57;;;;;;;;;;4999255;28;20526;-69
2022/11/13 01:42:53;;;;;;;1.75;0.60;;;;;;;;;;5013099;28;20029;-68
2022/11/13 01:46:13;;;;;;;1.90;0.75;;;;;;;;;;4999247;28;20037;-68
2022/11/13 01:49:02;;;;;;;5.70;0.98;;;;;;;;;;4956423;28;20058;-68
2022/11/13 01:51:49;;;;;;;0.77;0.52;;;;;;;;;;4999769;28;20086;-68
2022/11/13 01:54:39;;;;;;;1.10;0.60;;;;;;;;;;5003564;28;20529;-68
2022/11/13 01:57:24;;;;;;;1.48;0.60;;;;;;;;;;5003074;28;20029;-68
2022/11/13 02:00:10;;;;;;;4.85;0.60;;;;;;;;;;5003009;28;20386;-68
2022/11/13 02:02:54;;;;;;;2.17;0.60;;;;;;;;;;5003141;28;20056;-68
2022/11/13 02:05:38;;;;;;;0.60;0.55;;;;;;;;;;5002757;28;20391;-68
2022/11/13 02:08:22;;;;;;;2.05;0.63;;;;;;;;;;5002817;28;20040;-69
2022/11/13 02:11:06;;;;;;;2.75;0.70;;;;;;;;;;5002783;28;20037;-69
2022/11/13 02:13:50;;;;;;;0.98;0.50;;;;;;;;;;5002615;28;20034;-69
2022/11/13 02:16:36;;;;;;;3.25;0.57;;;;;;;;;;5002994;28;20037;-69
2022/11/13 02:19:39;;;;;;;5.38;0.75;;;;;;;;;;5002714;28;20037;-69
2022/11/13 02:22:26;;;;;;;3.80;0.50;;;;;;;;;;5016457;28;20463;-69
2022/11/13 02:25:12;;;;;;;1.50;0.43;;;;;;;;;;5002329;28;20387;-69
2022/11/13 02:27:56;;;;;;;0.93;0.70;;;;;;;;;;5002609;28;20034;-69
2022/11/13 02:30:40;;;;;;;2.63;0.50;;;;;;;;;;5002329;28;20111;-69
2022/11/13 02:33:29;;;;;;;2.58;0.60;;;;;;;;;;5002586;28;20073;-69
2022/11/13 02:36:14;;;;;;;4.93;0.63;;;;;;;;;;5002280;28;20095;-68
2022/11/13 02:39:00;;;;;;;0.40;0.40;;;;;;;;;;5002336;28;20044;-68
2022/11/13 02:41:44;;;;;;;1.77;0.50;;;;;;;;;;5016278;28;21416;-69
2022/11/13 02:44:28;;;;;;;0.65;0.40;;;;;;;;;;5002413;28;20029;-69
2022/11/13 02:47:12;;;;;;;1.45;0.50;;;;;;;;;;5002477;28;20131;-69
2022/11/13 02:49:56;;;;;;;1.15;0.47;;;;;;;;;;5001997;28;20091;-68
2022/11/13 02:52:40;;;;;;;3.03;0.50;;;;;;;;;;5001919;28;20044;-69
2022/11/13 02:55:24;;;;;;;6.75;0.70;;;;;;;;;;5002119;28;20135;-69
2022/11/13 02:58:08;;;;;;;1.73;0.75;;;;;;;;;;5002225;28;20034;-67
2022/11/13 03:00:52;;;;;;;3.28;0.60;;;;;;;;;;5001939;28;20453;-68
2022/11/13 03:03:36;;;;;;;2.97;0.60;;;;;;;;;;5000969;28;20124;-67
2022/11/13 03:06:20;;;;;;;1.77;0.63;;;;;;;;;;5001863;28;20533;-67
2022/11/13 03:09:04;;;;;;;2.13;0.55;;;;;;;;;;5001886;28;20037;-68
2022/11/13 03:11:48;;;;;;;0.73;0.40;;;;;;;;;;5001755;28;20029;-67
2022/11/13 03:14:31;;;;;;;4.55;0.50;;;;;;;;;;5002063;28;20033;-68
2022/11/13 03:17:16;;;;;;;0.63;0.55;;;;;;;;;;5001660;28;20495;-68
2022/11/13 03:20:00;;;;;;;2.35;1.00;;;;;;;;;;5001754;28;20041;-68
2022/11/13 03:22:44;;;;;;;1.38;0.50;;;;;;;;;;5001552;28;20034;-68
2022/11/13 03:25:28;;;;;;;1.55;0.50;;;;;;;;;;5001264;28;20526;-67
2022/11/13 03:28:12;;;;;;;2.65;0.93;;;;;;;;;;5001271;28;20078;-68
2022/11/13 03:30:56;;;;;;;1.63;0.50;;;;;;;;;;5001175;28;20088;-67
2022/11/13 03:33:41;;;;;;;2.00;0.50;;;;;;;;;;5001257;28;20029;-67
2022/11/13 03:36:25;;;;;;;3.88;0.50;;;;;;;;;;5001168;28;20507;-67
2022/11/13 03:39:09;;;;;;;1.30;0.55;;;;;;;;;;5001078;28;20406;-67
2022/11/13 03:41:53;;;;;;;2.50;0.40;;;;;;;;;;5001105;28;20037;-67
2022/11/13 03:44:37;;;;;;;0.75;0.50;;;;;;;;;;5000689;28;20525;-68
2022/11/13 03:47:22;;;;;;;2.17;0.50;;;;;;;;;;5001094;28;20037;-67
2022/11/13 03:50:06;;;;;;;4.25;0.50;;;;;;;;;;5014778;28;20107;-68
2022/11/13 03:52:51;;;;;;;1.67;0.50;;;;;;;;;;5000691;28;20533;-68
2022/11/13 03:55:35;;;;;;;1.10;0.45;;;;;;;;;;5014666;28;20037;-67
2022/11/13 03:58:19;;;;;;;2.47;0.63;;;;;;;;;;5000706;28;20041;-67
2022/11/13 04:01:04;;;;;;;2.72;0.40;;;;;;;;;;4997460;28;20117;-68
2022/11/13 04:03:48;;;;;;;1.00;0.45;;;;;;;;;;5000621;28;20037;-68
2022/11/13 04:06:32;;;;;;;0.60;0.40;;;;;;;;;;5000753;28;20449;-68
2022/11/13 04:09:16;;;;;;;1.35;0.70;;;;;;;;;;5000213;28;20041;-68
2022/11/13 04:12:00;;;;;;;1.20;0.50;;;;;;;;;;5000817;28;20040;-68
2022/11/13 04:14:44;;;;;;;0.82;0.45;;;;;;;;;;5000150;28;20100;-68
2022/11/13 04:17:30;;;;;;;2.17;0.50;;;;;;;;;;5000502;28;20063;-68
2022/11/13 04:20:15;;;;;;;1.42;0.50;;;;;;;;;;5002040;28;20498;-68
2022/11/13 04:22:59;;;;;;;3.33;0.60;;;;;;;;;;5020069;28;20156;-67
2022/11/13 04:25:44;;;;;;;1.67;0.40;;;;;;;;;;5019778;28;20110;-69
2022/11/13 04:28:28;;;;;;;2.47;0.73;;;;;;;;;;5033420;28;20033;-68
2022/11/13 04:31:12;;;;;;;0.63;0.50;;;;;;;;;;5019522;28;20055;-68
2022/11/13 04:33:56;;;;;;;1.55;0.50;;;;;;;;;;5019464;28;20383;-67
2022/11/13 04:36:40;;;;;;;0.98;0.60;;;;;;;;;;5019525;28;20122;-68
2022/11/13 04:39:24;;;;;;;1.05;0.50;;;;;;;;;;5019847;28;20218;-68
2022/11/13 04:45:11;;;;;;;1.63;0.63;;;;;;;;;;5016011;28;20419;-71
2022/11/13 04:47:55;;;;;;;2.88;0.70;;;;;;;;;;5001635;28;20033;-71
2022/11/13 04:50:39;;;;;;;0.63;0.60;;;;;;;;;;4995995;28;20041;-69
2022/11/13 04:53:23;;;;;;;3.70;0.65;;;;;;;;;;4982101;28;20037;-69
2022/11/13 04:56:07;;;;;;;2.30;0.60;;;;;;;;;;4995018;28;20050;-70
2022/11/13 04:58:51;;;;;;;1.38;0.63;;;;;;;;;;5019277;28;20045;-70
2022/11/13 05:01:35;;;;;;;2.25;0.75;;;;;;;;;;5006440;28;20025;-70
2022/11/13 05:04:20;;;;;;;0.98;0.40;;;;;;;;;;4999806;28;20065;-70
2022/11/13 05:07:04;;;;;;;1.08;0.50;;;;;;;;;;4999848;28;20037;-69
2022/11/13 05:09:48;;;;;;;2.15;0.68;;;;;;;;;;4999387;28;20073;-69
2022/11/13 05:12:32;;;;;;;2.83;1.00;;;;;;;;;;4979287;28;20026;-69
2022/11/13 05:15:16;;;;;;;0.68;0.40;;;;;;;;;;4993666;28;20060;-70
2022/11/13 05:18:00;;;;;;;2.13;0.70;;;;;;;;;;4980166;28;20030;-69
2022/11/13 05:20:44;;;;;;;5.05;0.75;;;;;;;;;;4984211;28;20040;-69
2022/11/13 05:23:28;;;;;;;1.35;0.70;;;;;;;;;;4999107;28;20040;-70
2022/11/13 05:26:12;;;;;;;2.45;0.88;;;;;;;;;;4999999;28;20629;-69
2022/11/13 05:29:00;;;;;;;0.80;0.68;;;;;;;;;;5005533;28;20040;-68
2022/11/13 05:31:44;;;;;;;3.17;0.80;;;;;;;;;;4996709;28;20060;-68
2022/11/13 05:34:28;;;;;;;0.90;0.60;;;;;;;;;;4995979;28;20107;-70
2022/11/13 05:37:12;;;;;;;2.47;0.70;;;;;;;;;;4999604;28;20058;-69
2022/11/13 05:39:56;;;;;;;1.83;0.70;;;;;;;;;;4999889;28;20033;-70
2022/11/13 05:42:40;;;;;;;1.92;0.80;;;;;;;;;;4985890;28;20087;-69
2022/11/13 05:45:25;;;;;;;3.17;0.60;;;;;;;;;;5016227;28;20037;-70
2022/11/13 05:48:08;;;;;;;3.10;0.82;;;;;;;;;;5016198;28;20393;-69
2022/11/13 05:50:53;;;;;;;3.10;0.52;;;;;;;;;;4984719;28;20126;-69
2022/11/13 05:53:38;;;;;;;1.40;0.80;;;;;;;;;;5001030;28;20049;-69
2022/11/13 05:56:23;;;;;;;1.20;0.70;;;;;;;;;;4998183;28;20100;-70
2022/11/13 05:59:07;;;;;;;3.85;1.10;;;;;;;;;;4997641;28;20037;-70
2022/11/13 06:01:51;;;;;;;4.43;0.85;;;;;;;;;;4984350;28;20033;-69
2022/11/13 06:04:35;;;;;;;2.00;0.60;;;;;;;;;;5001037;28;20065;-70
2022/11/13 06:07:19;;;;;;;1.83;0.60;;;;;;;;;;5001354;28;20038;-70
2022/11/13 06:10:03;;;;;;;3.72;0.75;;;;;;;;;;4993371;28;20494;-70
2022/11/13 06:12:48;;;;;;;4.18;0.90;;;;;;;;;;4992741;28;20030;-72
2022/11/13 06:15:32;;;;;;;2.38;0.70;;;;;;;;;;4999951;28;20071;-72
2022/11/13 06:18:19;;;;;;;4.82;0.80;;;;;;;;;;5002174;28;20026;-71
2022/11/13 06:21:06;;;;;;;1.60;0.70;;;;;;;;;;5001176;28;20772;-72
2022/11/13 06:23:51;;;;;;;3.88;0.60;;;;;;;;;;4996084;28;20100;-75
2022/11/13 06:26:35;;;;;;;1.17;0.60;;;;;;;;;;4990516;28;20049;-73
2022/11/13 06:29:19;;;;;;;1.25;0.70;;;;;;;;;;5009363;28;20168;-72
2022/11/13 06:32:05;;;;;;;2.15;0.73;;;;;;;;;;4992873;28;20042;-73
2022/11/13 06:34:48;;;;;;;2.05;0.63;;;;;;;;;;4990013;28;20030;-76
2022/11/13 06:37:35;;;;;;;2.53;0.60;;;;;;;;;;4985434;28;20502;-68
2022/11/13 06:40:19;;;;;;;1.60;0.80;;;;;;;;;;4996423;28;20088;-67
2022/11/13 06:43:03;;;;;;;2.38;0.60;;;;;;;;;;4982915;28;20069;-70
2022/11/13 06:45:47;;;;;;;0.95;0.80;;;;;;;;;;4982547;28;20507;-68
2022/11/13 06:48:32;;;;;;;2.75;0.50;;;;;;;;;;4982849;28;20125;-67
2022/11/13 06:51:19;;;;;;;0.50;0.40;;;;;;;;;;4996175;28;20049;-67
2022/11/13 06:54:03;;;;;;;2.05;0.55;;;;;;;;;;4988621;28;20033;-67
2022/11/13 06:56:47;;;;;;;1.40;1.05;;;;;;;;;;5009462;28;20040;-67
2022/11/13 06:59:31;;;;;;;1.88;0.43;;;;;;;;;;5005561;28;20452;-68
2022/11/13 07:02:15;;;;;;;1.00;0.32;;;;;;;;;;5023378;28;20040;-69
2022/11/13 07:04:59;;;;;;;1.05;0.50;;;;;;;;;;5008396;28;20038;-67
2022/11/13 07:07:44;;;;;;;0.63;0.45;;;;;;;;;;4990382;28;20030;-68
2022/11/13 07:10:28;;;;;;;1.92;0.50;;;;;;;;;;4995283;28;20037;-69
2022/11/13 07:13:12;;;;;;;2.22;0.32;;;;;;;;;;4991063;28;20460;-67
2022/11/13 07:16:00;;;;;;;0.40;0.40;;;;;;;;;;5014695;28;20030;-68
2022/11/13 07:18:53;;;;;;;2.70;0.70;;;;;;;;;;5002145;28;20037;-68
2022/11/13 07:21:37;;;;;;;0.70;0.60;;;;;;;;;;5002310;28;20092;-68
2022/11/13 07:24:21;;;;;;;1.67;0.93;;;;;;;;;;4990605;28;20040;-67
2022/11/13 07:27:05;;;;;;;1.35;0.77;;;;;;;;;;4990874;28;20103;-68
2022/11/13 07:29:49;;;;;;;0.60;0.60;;;;;;;;;;4991744;28;20034;-67
2022/11/13 07:32:33;;;;;;;3.60;0.73;;;;;;;;;;4991108;28;20045;-68
2022/11/13 07:35:17;;;;;;;3.47;0.80;;;;;;;;;;4989853;28;20387;-67
2022/11/13 07:38:01;;;;;;;0.85;0.70;;;;;;;;;;4990460;28;20057;-67
2022/11/13 07:40:45;;;;;;;4.30;0.70;;;;;;;;;;4990682;28;20038;-67
2022/11/13 07:43:29;;;;;;;2.17;0.60;;;;;;;;;;5008019;28;20045;-67
2022/11/13 07:46:13;;;;;;;1.25;0.90;;;;;;;;;;5022399;28;20029;-67
2022/11/13 07:48:58;;;;;;;3.00;0.98;;;;;;;;;;5014600;28;20041;-67
2022/11/13 07:51:42;;;;;;;1.77;0.80;;;;;;;;;;5001890;28;20025;-67
2022/11/13 07:54:26;;;;;;;0.98;0.60;;;;;;;;;;5013704;28;20038;-67
2022/11/13 07:57:10;;;;;;;2.42;0.52;;;;;;;;;;5004762;28;20145;-68
2022/11/13 07:59:54;;;;;;;4.05;1.05;;;;;;;;;;5028787;28;20037;-67
2022/11/13 08:02:38;;;;;;;1.95;0.80;;;;;;;;;;5016872;28;20047;-69
2022/11/13 08:05:22;;;;;;;6.97;1.17;;;;;;;;;;5000675;28;20384;-69
2022/11/13 08:08:07;;;;;;;2.40;0.70;;;;;;;;;;5017261;28;20890;-69
2022/11/13 08:10:51;;;;;;;4.97;0.70;;;;;;;;;;5014192;28;20033;-69
2022/11/13 08:13:35;;;;;;;2.90;0.73;;;;;;;;;;4999719;28;20507;-69
2022/11/13 08:16:19;;;;;;;2.47;0.90;;;;;;;;;;5010204;28;20116;-68
2022/11/13 08:19:03;;;;;;;1.70;1.10;;;;;;;;;;5014233;28;20117;-67
2022/11/13 08:21:47;;;;;;;2.45;0.70;;;;;;;;;;4989761;28;20403;-70
2022/11/13 08:24:32;;;;;;;1.42;0.57;;;;;;;;;;4987345;28;20452;-68
2022/11/13 08:27:16;;;;;;;0.40;0.40;;;;;;;;;;5003244;28;20477;-68
2022/11/13 08:30:00;;;;;;;2.35;0.93;;;;;;;;;;5028138;28;20033;-69
2022/11/13 08:32:44;;;;;;;0.98;0.50;;;;;;;;;;5018944;28;20043;-69
2022/11/13 08:35:28;;;;;;;0.93;0.50;;;;;;;;;;5018725;28;20041;-68
2022/11/13 08:38:12;;;;;;;1.77;0.57;;;;;;;;;;4992883;28;20054;-68
2022/11/13 08:40:57;;;;;;;3.25;0.40;;;;;;;;;;4973837;28;20046;-68
2022/11/13 08:43:41;;;;;;;2.05;0.50;;;;;;;;;;4991174;28;20044;-68
2022/11/13 08:46:26;;;;;;;4.32;0.75;;;;;;;;;;4966612;28;20563;-68
2022/11/13 08:49:11;;;;;;;6.68;1.00;;;;;;;;;;4969943;28;20125;-69
2022/11/13 08:51:55;;;;;;;1.30;0.77;;;;;;;;;;4967022;28;20780;-69
2022/11/13 08:54:39;;;;;;;2.20;1.02;;;;;;;;;;4969399;28;20045;-69
2022/11/13 08:57:23;;;;;;;0.85;0.60;;;;;;;;;;4971905;28;20893;-68
2022/11/13 09:00:07;;;;;;;1.90;0.57;;;;;;;;;;4965632;28;20041;-69
2022/11/13 09:02:55;;;;;;;1.17;0.30;;;;;;;;;;4964310;28;20034;-68
2022/11/13 09:05:39;;;;;;;0.75;0.70;;;;;;;;;;4970172;28;20088;-69
2022/11/13 09:08:24;;;;;;;2.80;0.80;;;;;;;;;;4985321;28;20040;-67
2022/11/13 09:11:08;;;;;;;2.08;0.70;;;;;;;;;;4968482;28;20030;-69
2022/11/13 09:13:53;;;;;;;1.60;0.75;;;;;;;;;;4964406;28;20540;-69
2022/11/13 09:16:37;;;;;;;0.93;0.60;;;;;;;;;;4968332;28;20042;-69
2022/11/13 09:19:21;;;;;;;1.35;0.90;;;;;;;;;;4982659;28;20399;-67
2022/11/13 09:22:06;;;;;;;0.88;0.60;;;;;;;;;;4979515;28;20540;-68
2022/11/13 09:24:50;;;;;;;2.05;0.70;;;;;;;;;;4979619;28;20120;-69
2022/11/13 09:27:34;;;;;;;0.75;0.50;;;;;;;;;;4980059;28;20029;-68
2022/11/13 09:30:18;;;;;;;3.17;0.50;;;;;;;;;;4979876;28;20030;-68
2022/11/13 09:33:02;;;;;;;2.65;0.73;;;;;;;;;;4993960;28;20056;-67
2022/11/13 09:35:47;;;;;;;0.90;0.70;;;;;;;;;;4996149;28;20045;-68
2022/11/13 09:38:31;;;;;;;2.20;0.70;;;;;;;;;;4996368;28;20048;-69
2022/11/13 09:41:25;;;;;;;3.40;0.90;;;;;;;;;;5005889;28;20055;-67
2022/11/13 09:44:14;;;;;;;4.65;2.78;;;;;;;;;;5000793;28;20042;-68
2022/11/13 09:47:04;;;;;;;6.32;1.20;;;;;;;;;;4988424;28;20030;-67
2022/11/13 09:49:51;;;;;;;3.30;0.80;;;;;;;;;;5000499;28;20041;-68
2022/11/13 09:52:36;;;;;;;2.35;0.77;;;;;;;;;;5000177;28;20037;-68
2022/11/13 09:55:24;;;;;;;3.60;0.60;;;;;;;;;;5004952;28;20045;-67
2022/11/13 09:58:11;;;;;;;3.17;0.60;;;;;;;;;;5020244;28;20038;-68
2022/11/13 10:00:55;;;;;;;1.35;0.57;;;;;;;;;;4988586;28;20217;-68
2022/11/13 10:03:42;;;;;;;1.60;0.55;;;;;;;;;;4988262;28;20049;-67
2022/11/13 10:06:35;;;;;;;4.90;0.70;;;;;;;;;;4998646;28;20664;-69
2022/11/13 10:09:35;;;;;;;1.98;0.60;;;;;;;;;;5001138;28;20144;-68
2022/11/13 10:12:20;;;;;;;0.93;0.70;;;;;;;;;;4986264;28;20029;-68
2022/11/13 10:15:05;;;;;;;1.50;0.80;;;;;;;;;;4991725;28;20044;-68
2022/11/13 10:17:49;;;;;;;2.40;1.02;;;;;;;;;;4989990;28;20052;-68
2022/11/13 10:20:43;;;;;;;3.90;1.02;;;;;;;;;;4992256;28;20045;-68
2022/11/13 10:23:32;;;;;;;2.05;0.77;;;;;;;;;;4993914;28;20072;-69
2022/11/13 10:26:18;;;;;;;1.25;0.60;;;;;;;;;;4991802;28;20036;-69
2022/11/13 10:29:18;;;;;;;3.15;1.00;;;;;;;;;;4993695;28;20094;-69
2022/11/13 10:32:14;;;;;;;1.63;1.08;;;;;;;;;;5008345;28;20037;-69
2022/11/13 10:35:05;;;;;;;5.22;1.27;;;;;;;;;;5003420;28;20037;-70
2022/11/13 10:37:49;;;;;;;3.90;1.00;;;;;;;;;;4989410;28;20054;-70
2022/11/13 10:40:34;;;;;;;1.60;0.90;;;;;;;;;;4983995;28;20476;-70
2022/11/13 10:43:23;;;;;;;4.32;0.88;;;;;;;;;;4975885;28;20038;-70
2022/11/13 10:46:17;;;;;;;1.52;0.65;;;;;;;;;;4983554;28;20054;-69
2022/11/13 10:49:30;;;;;;;2.63;0.70;;;;;;;;;;4971539;28;20034;-69
2022/11/13 10:52:19;;;;;;;4.53;0.60;;;;;;;;;;4966092;28;20037;-67
2022/11/13 10:55:16;;;;;;;2.50;0.60;;;;;;;;;;4983935;28;20532;-67
2022/11/13 10:58:02;;;;;;;2.10;0.70;;;;;;;;;;4971898;28;20129;-68
2022/11/13 11:00:48;;;;;;;1.63;0.90;;;;;;;;;;4973289;28;20042;-69
2022/11/13 11:03:32;;;;;;;3.30;0.82;;;;;;;;;;4974179;28;20030;-69
2022/11/13 11:06:16;;;;;;;1.42;0.90;;;;;;;;;;4969793;28;20037;-69
2022/11/13 11:09:04;;;;;;;4.53;0.55;;;;;;;;;;4983161;28;20026;-68
2022/11/13 11:12:17;;;;;;;4.45;0.65;;;;;;;;;;4971095;28;20040;-69
2022/11/13 11:15:20;;;;;;;5.90;0.50;;;;;;;;;;4984644;28;20026;-70
2022/11/13 11:18:12;;;;;;;2.17;0.77;;;;;;;;;;4973054;28;20033;-70
2022/11/13 11:20:57;;;;;;;6.60;0.60;;;;;;;;;;4972973;28;20048;-70
2022/11/13 11:23:53;;;;;;;3.13;0.50;;;;;;;;;;4971921;28;20038;-69
2022/11/13 11:26:46;;;;;;;4.63;0.80;;;;;;;;;;4984174;28;20022;-69
2022/11/13 11:29:37;;;;;;;1.85;0.60;;;;;;;;;;4972716;28;20026;-69
2022/11/13 11:32:21;;;;;;;;;;;;;;;;;;4972887;28;20052;-69
2022/11/13 11:35:19;;;;;;;1.40;0.60;;;;;;;;;;4992633;28;19925;-69
2022/11/13 11:38:09;;;;;;;2.28;0.40;;;;;;;;;;4998580;28;20053;-68
2022/11/13 11:40:56;;;;;;;4.65;0.63;;;;;;;;;;5002042;28;20484;-69
2022/11/13 11:43:45;;;;;;;0.93;0.75;;;;;;;;;;5016019;28;20368;-69
2022/11/13 11:46:29;;;;;;;7.30;1.25;;;;;;;;;;5001971;28;20033;-69
2022/11/13 11:49:14;;;;;;;3.10;1.05;;;;;;;;;;5002175;28;20037;-69
2022/11/13 11:52:14;;;;;;;1.25;0.70;;;;;;;;;;5001922;28;20037;-70
2022/11/13 11:55:20;;;;;;;6.82;0.70;;;;;;;;;;5001741;28;20103;-70
2022/11/13 11:58:14;;;;;;;4.28;0.80;;;;;;;;;;5001625;28;20125;-70
2022/11/13 12:01:05;;;;;;;0.77;0.50;;;;;;;;;;5001504;28;20045;-69
2022/11/13 12:03:55;;;;;;;3.50;0.50;;;;;;;;;;5001630;28;20026;-67
2022/11/13 12:07:02;;;;;;;3.08;0.68;;;;;;;;;;5003849;28;20033;-69
2022/11/13 12:10:22;;;;;;;8.77;0.80;;;;;;;;;;5005183;28;20052;-66
2022/11/13 12:13:18;;;;;;;3.28;0.70;;;;;;;;;;4939837;28;20043;-67
2022/11/13 12:16:19;;;;;;;2.88;0.90;;;;;;;;;;5001600;28;20107;-67
2022/11/13 12:19:08;;;;;;;3.15;0.60;;;;;;;;;;5001206;28;20044;-67
2022/11/13 12:22:13;;;;;;;1.85;0.70;;;;;;;;;;5001344;28;20037;-68
2022/11/13 12:24:58;;;;;;;2.63;0.80;;;;;;;;;;5014350;28;20038;-69
2022/11/13 12:27:53;;;;;;;4.10;0.77;;;;;;;;;;5000899;28;20038;-68
2022/11/13 12:30:40;;;;;;;4.13;0.77;;;;;;;;;;5014065;28;20245;-68
2022/11/13 12:33:37;;;;;;;3.13;0.60;;;;;;;;;;5001132;28;20044;-68
2022/11/13 12:36:21;;;;;;;2.72;1.00;;;;;;;;;;5000701;28;20412;-68
2022/11/13 12:39:24;;;;;;;1.50;0.60;;;;;;;;;;5001340;28;20037;-69
2022/11/13 12:42:12;;;;;;;1.80;0.60;;;;;;;;;;5001448;28;20060;-68
2022/11/13 12:44:57;;;;;;;5.47;0.77;;;;;;;;;;5001005;28;20083;-70
2022/11/13 12:47:41;;;;;;;1.27;0.65;;;;;;;;;;5001079;28;20095;-70
2022/11/13 12:50:30;;;;;;;1.13;0.55;;;;;;;;;;5017480;28;20052;-70
2022/11/13 12:53:22;;;;;;;1.27;0.70;;;;;;;;;;5001051;28;20044;-70
2022/11/13 12:56:12;;;;;;;4.13;0.77;;;;;;;;;;5015021;28;20029;-70
2022/11/13 12:58:56;;;;;;;2.03;0.85;;;;;;;;;;5000797;28;20128;-70
2022/11/13 13:01:50;;;;;;;2.03;0.65;;;;;;;;;;5001148;28;20037;-70
2022/11/13 13:04:36;;;;;;;2.85;0.70;;;;;;;;;;5000888;28;20037;-70
2022/11/13 13:07:27;;;;;;;1.27;0.63;;;;;;;;;;5000746;28;20099;-70
2022/11/13 13:10:30;;;;;;;2.65;0.50;;;;;;;;;;5001286;28;20029;-68
2022/11/13 13:13:18;;;;;;;4.28;0.68;;;;;;;;;;5000678;28;20044;-70
2022/11/13 13:16:03;;;;;;;3.45;0.65;;;;;;;;;;5003761;28;20075;-71
2022/11/13 13:18:47;;;;;;;2.05;0.82;;;;;;;;;;5000602;28;20033;-70
2022/11/13 13:21:41;;;;;;;1.98;0.80;;;;;;;;;;5014310;28;20147;-70
2022/11/13 13:24:33;;;;;;;4.93;0.88;;;;;;;;;;5000473;28;20029;-71
2022/11/13 13:27:21;;;;;;;8.25;0.85;;;;;;;;;;5000738;28;20048;-70
2022/11/13 13:30:16;;;;;;;3.60;0.82;;;;;;;;;;5000409;28;20040;-70
2022/11/13 13:33:21;;;;;;;3.17;1.00;;;;;;;;;;4990834;28;20107;-69
2022/11/13 13:36:19;;;;;;;2.42;1.00;;;;;;;;;;5000615;28;20064;-70
2022/11/13 13:39:18;;;;;;;0.85;0.70;;;;;;;;;;4987706;28;20045;-69
2022/11/13 13:42:26;;;;;;;1.35;0.65;;;;;;;;;;5001273;28;20053;-69
2022/11/13 13:45:22;;;;;;;3.38;1.15;;;;;;;;;;4990523;28;20041;-70
2022/11/13 13:48:09;;;;;;;5.47;0.80;;;;;;;;;;5005008;28;20030;-70
2022/11/13 13:50:54;;;;;;;0.93;0.80;;;;;;;;;;4994552;28;20459;-69
2022/11/13 13:53:38;;;;;;;0.98;0.52;;;;;;;;;;4994587;28;20357;-69
2022/11/13 13:56:22;;;;;;;1.92;0.88;;;;;;;;;;4993902;28;20026;-69
2022/11/13 13:59:15;;;;;;;6.90;0.80;;;;;;;;;;4989744;28;20040;-71
2022/11/13 14:02:01;;;;;;;0.75;0.70;;;;;;;;;;4984237;28;20386;-70
2022/11/13 14:04:46;;;;;;;1.05;0.77;;;;;;;;;;4984149;28;20048;-69
2022/11/13 14:07:32;;;;;;;1.05;0.80;;;;;;;;;;5002763;28;20530;-69
2022/11/13 14:10:17;;;;;;;5.57;1.23;;;;;;;;;;4994281;28;20057;-68
2022/11/13 14:13:02;;;;;;;0.70;0.60;;;;;;;;;;4994006;28;20038;-68
2022/11/13 14:15:47;;;;;;;1.92;0.70;;;;;;;;;;4994672;28;20038;-68
2022/11/13 14:18:31;;;;;;;1.23;0.75;;;;;;;;;;4993900;28;20026;-69
2022/11/13 14:21:19;;;;;;;14.48;0.93;;;;;;;;;;5022692;28;20033;-69
2022/11/13 14:24:04;;;;;;;3.70;0.80;;;;;;;;;;5004433;28;20191;-69
2022/11/13 14:26:50;;;;;;;1.40;0.70;;;;;;;;;;4993355;28;20038;-69
2022/11/13 14:29:35;;;;;;;0.73;0.63;;;;;;;;;;5007025;28;20022;-68
2022/11/13 14:32:27;;;;;;;6.50;0.75;;;;;;;;;;4989820;28;20026;-68
2022/11/13 14:35:22;;;;;;;2.10;0.80;;;;;;;;;;4991470;28;20037;-70
2022/11/13 14:38:15;;;;;;;7.72;0.90;;;;;;;;;;5012874;28;20078;-69
2022/11/13 14:41:00;;;;;;;3.70;0.85;;;;;;;;;;4990903;28;20124;-68
2022/11/13 14:43:47;;;;;;;0.95;0.77;;;;;;;;;;4993136;28;20033;-69
2022/11/13 14:46:36;;;;;;;1.08;0.60;;;;;;;;;;5009361;28;20029;-69
2022/11/13 14:49:32;;;;;;;7.07;0.80;;;;;;;;;;4992719;28;20025;-68
2022/11/13 14:52:20;;;;;;;1.77;0.70;;;;;;;;;;4991919;28;20471;-73
2022/11/13 14:55:05;;;;;;;1.13;0.70;;;;;;;;;;4993205;28;20136;-71
2022/11/13 14:57:49;;;;;;;1.38;0.52;;;;;;;;;;4991443;28;20030;-69
2022/11/13 15:00:35;;;;;;;4.07;0.73;;;;;;;;;;5006856;28;20042;-71
2022/11/13 15:03:19;;;;;;;0.70;0.60;;;;;;;;;;4992163;28;20448;-70
2022/11/13 15:06:03;;;;;;;2.13;0.90;;;;;;;;;;4992990;28;20172;-69
2022/11/13 15:08:47;;;;;;;1.27;0.80;;;;;;;;;;4993143;28;20025;-70
2022/11/13 15:11:31;;;;;;;3.08;0.73;;;;;;;;;;5003839;28;20049;-69
2022/11/13 15:14:16;;;;;;;3.00;0.95;;;;;;;;;;4991516;28;20030;-71
2022/11/13 15:17:00;;;;;;;3.13;1.30;;;;;;;;;;4991142;28;20057;-70
2022/11/13 15:19:47;;;;;;;2.33;1.25;;;;;;;;;;4986155;28;20128;-71
2022/11/13 15:22:31;;;;;;;1.60;0.73;;;;;;;;;;4990522;28;20033;-71
2022/11/13 15:25:20;;;;;;;1.35;0.90;;;;;;;;;;4992091;28;20094;-71
2022/11/13 15:28:04;;;;;;;4.30;0.73;;;;;;;;;;5002152;28;20087;-71
2022/11/13 15:30:48;;;;;;;3.80;0.90;;;;;;;;;;5002524;28;20514;-71
2022/11/13 15:33:32;;;;;;;2.08;0.88;;;;;;;;;;5002268;28;20464;-71
2022/11/13 15:36:16;;;;;;;3.47;1.10;;;;;;;;;;4994862;28;20456;-71
2022/11/13 15:39:02;;;;;;;3.85;0.80;;;;;;;;;;5002393;28;20383;-71
2022/11/13 15:41:46;;;;;;;3.42;1.50;;;;;;;;;;4997593;28;20038;-71
2022/11/13 15:44:30;;;;;;;2.90;1.20;;;;;;;;;;4998695;28;20389;-70
2022/11/13 15:47:31;;;;;;;1.15;1.02;;;;;;;;;;4998445;28;20021;-70
2022/11/13 15:50:15;;;;;;;4.75;0.80;;;;;;;;;;5012492;28;20041;-71
2022/11/13 15:52:59;;;;;;;6.95;0.90;;;;;;;;;;4980703;28;20025;-71
2022/11/13 15:55:43;;;;;;;2.28;1.00;;;;;;;;;;4980434;28;20052;-72
2022/11/13 15:58:30;;;;;;;4.60;1.20;;;;;;;;;;4994153;28;20056;-70
2022/11/13 16:01:14;;;;;;;4.30;0.93;;;;;;;;;;4997925;28;20068;-70
2022/11/13 16:04:01;;;;;;;1.85;0.90;;;;;;;;;;4998762;28;20124;-71
2022/11/13 16:06:45;;;;;;;2.55;1.00;;;;;;;;;;4998480;28;20094;-70
2022/11/13 16:09:29;;;;;;;2.65;1.23;;;;;;;;;;4992175;28;20345;-71
2022/11/13 16:12:14;;;;;;;3.53;0.90;;;;;;;;;;4986772;28;20041;-69
2022/11/13 16:14:57;;;;;;;1.83;0.85;;;;;;;;;;4993236;28;20365;-70
2022/11/13 16:17:45;;;;;;;5.20;0.90;;;;;;;;;;4993831;28;20033;-68
2022/11/13 16:20:29;;;;;;;2.63;0.90;;;;;;;;;;4993691;28;21064;-69
2022/11/13 16:23:15;;;;;;;4.53;0.98;;;;;;;;;;5009623;28;20030;-72
2022/11/13 16:26:03;;;;;;;1.45;0.80;;;;;;;;;;5007159;28;20478;-72
2022/11/13 16:28:48;;;;;;;1.15;0.90;;;;;;;;;;4993087;28;20041;-72
2022/11/13 16:31:32;;;;;;;8.18;1.30;;;;;;;;;;4993499;28;20025;-70
2022/11/13 16:34:16;;;;;;;2.85;0.85;;;;;;;;;;4993020;28;20103;-70
2022/11/13 16:37:00;;;;;;;1.70;0.80;;;;;;;;;;4994824;28;20430;-70
2022/11/13 16:39:45;;;;;;;1.42;1.15;;;;;;;;;;5009044;28;20355;-70
2022/11/13 16:42:30;;;;;;;1.70;0.70;;;;;;;;;;4981080;28;20125;-70